sensor_id;sensor_type;location;lat;lon;timestamp;P1;durP1;ratioP1;P2;durP2;ratioP2
1747;SDS011;871;47.034;15.394;2023-02-15T05:02:32;50.70;;;17.30;;
1747;SDS011;871;47.034;15.394;2023-02-15T05:04:58;62.97;;;20.13;;
1747;SDS011;871;47.034;15.394;2023-02-15T05:07:24;62.80;;;19.67;;
1747;SDS011;871;47.034;15.394;2023-02-15T05:09:50;64.80;;;17.73;;
1747;SDS011;871;47.034;15.394;2023-02-15T05:12:16;68.53;;;19.40;;
1747;SDS011;871;47.034;15.394;2023-02-15T05:14:42;71.05;;;22.08;;
1747;SDS011;871;47.034;15.394;2023-02-15T05:17:08;67.13;;;20.27;;
1747;SDS011;871;47.034;15.394;2023-02-15T05:19:34;69.47;;;21.15;;
1747;SDS011;871;47.034;15.394;2023-02-15T05:22:00;74.28;;;20.80;;
1747;SDS011;871;47.034;15.394;2023-02-15T05:24:26;73.50;;;21.03;;
1747;SDS011;871;47.034;15.394;2023-02-15T05:27:11;76.18;;;22.30;;
1747;SDS011;871;47.034;15.394;2023-02-15T05:29:55;75.97;;;20.80;;
1747;SDS011;871;47.034;15.394;2023-02-15T05:32:21;71.93;;;21.60;;
1747;SDS011;871;47.034;15.394;2023-02-15T05:34:48;75.03;;;21.08;;
1747;SDS011;871;47.034;15.394;2023-02-15T05:37:14;66.47;;;19.55;;
1747;SDS011;871;47.034;15.394;2023-02-15T05:39:40;76.77;;;21.50;;
1747;SDS011;871;47.034;15.394;2023-02-15T05:42:06;78.72;;;21.17;;
1747;SDS011;871;47.034;15.394;2023-02-15T05:44:32;72.40;;;20.17;;
1747;SDS011;871;47.034;15.394;2023-02-15T05:46:59;75.35;;;21.83;;
1747;SDS011;871;47.034;15.394;2023-02-15T05:49:27;73.20;;;20.02;;
1747;SDS011;871;47.034;15.394;2023-02-15T05:51:55;67.43;;;19.95;;
1747;SDS011;871;47.034;15.394;2023-02-15T05:54:21;78.95;;;22.95;;
1747;SDS011;871;47.034;15.394;2023-02-15T05:56:47;77.63;;;21.90;;
1747;SDS011;871;47.034;15.394;2023-02-15T05:59:13;79.05;;;21.90;;
1747;SDS011;871;47.034;15.394;2023-02-15T06:01:40;71.82;;;23.50;;
1747;SDS011;871;47.034;15.394;2023-02-15T06:04:06;71.28;;;21.25;;
1747;SDS011;871;47.034;15.394;2023-02-15T06:06:32;72.65;;;21.58;;
1747;SDS011;871;47.034;15.394;2023-02-15T06:08:59;71.68;;;23.17;;
1747;SDS011;871;47.034;15.394;2023-02-15T06:11:25;75.60;;;22.38;;
1747;SDS011;871;47.034;15.394;2023-02-15T06:13:51;70.28;;;21.13;;
1747;SDS011;871;47.034;15.394;2023-02-15T06:16:17;72.72;;;22.25;;
1747;SDS011;871;47.034;15.394;2023-02-15T06:18:43;67.45;;;21.90;;
1747;SDS011;871;47.034;15.394;2023-02-15T06:21:09;68.03;;;20.67;;
1747;SDS011;871;47.034;15.394;2023-02-15T06:23:37;78.70;;;22.42;;
1747;SDS011;871;47.034;15.394;2023-02-15T06:26:03;73.95;;;21.10;;
1747;SDS011;871;47.034;15.394;2023-02-15T06:28:29;73.05;;;20.45;;
1747;SDS011;871;47.034;15.394;2023-02-15T06:30:55;67.85;;;19.45;;
1747;SDS011;871;47.034;15.394;2023-02-15T06:33:21;61.28;;;18.98;;
1747;SDS011;871;47.034;15.394;2023-02-15T06:35:47;59.38;;;16.42;;
1747;SDS011;871;47.034;15.394;2023-02-15T06:38:13;63.45;;;16.92;;
1747;SDS011;871;47.034;15.394;2023-02-15T06:40:39;61.00;;;15.80;;
1747;SDS011;871;47.034;15.394;2023-02-15T06:43:07;65.40;;;16.23;;
1747;SDS011;871;47.034;15.394;2023-02-15T06:45:33;65.82;;;15.50;;
1747;SDS011;871;47.034;15.394;2023-02-15T06:47:59;68.05;;;17.52;;
1747;SDS011;871;47.034;15.394;2023-02-15T06:50:26;64.88;;;16.67;;
1747;SDS011;871;47.034;15.394;2023-02-15T06:52:56;64.20;;;16.02;;
1747;SDS011;871;47.034;15.394;2023-02-15T06:55:22;63.15;;;16.70;;
1747;SDS011;871;47.034;15.394;2023-02-15T06:57:48;66.30;;;17.30;;
1747;SDS011;871;47.034;15.394;2023-02-15T07:00:14;62.42;;;16.90;;
1747;SDS011;871;47.034;15.394;2023-02-15T07:02:40;71.43;;;19.25;;
1747;SDS011;871;47.034;15.394;2023-02-15T07:05:06;61.47;;;16.00;;
1747;SDS011;871;47.034;15.394;2023-02-15T07:07:33;64.90;;;16.60;;
1747;SDS011;871;47.034;15.394;2023-02-15T07:09:59;68.13;;;16.80;;
1747;SDS011;871;47.034;15.394;2023-02-15T07:12:25;63.17;;;16.35;;
1747;SDS011;871;47.034;15.394;2023-02-15T07:15:08;61.83;;;15.57;;
1747;SDS011;871;47.034;15.394;2023-02-15T07:17:34;61.35;;;16.58;;
1747;SDS011;871;47.034;15.394;2023-02-15T07:20:03;66.65;;;18.17;;
1747;SDS011;871;47.034;15.394;2023-02-15T07:22:29;73.68;;;17.92;;
1747;SDS011;871;47.034;15.394;2023-02-15T07:24:56;71.95;;;17.52;;
1747;SDS011;871;47.034;15.394;2023-02-15T07:27:24;66.13;;;18.92;;
1747;SDS011;871;47.034;15.394;2023-02-15T07:29:50;73.40;;;19.48;;
1747;SDS011;871;47.034;15.394;2023-02-15T07:32:16;74.45;;;21.77;;
1747;SDS011;871;47.034;15.394;2023-02-15T07:34:42;79.10;;;19.90;;
1747;SDS011;871;47.034;15.394;2023-02-15T07:37:08;66.65;;;19.20;;
1747;SDS011;871;47.034;15.394;2023-02-15T07:39:34;74.82;;;18.98;;
1747;SDS011;871;47.034;15.394;2023-02-15T07:42:00;72.73;;;19.33;;
1747;SDS011;871;47.034;15.394;2023-02-15T07:44:26;75.38;;;19.95;;
1747;SDS011;871;47.034;15.394;2023-02-15T07:46:52;78.70;;;20.63;;
1747;SDS011;871;47.034;15.394;2023-02-15T07:49:18;74.35;;;19.83;;
1747;SDS011;871;47.034;15.394;2023-02-15T07:51:44;67.82;;;17.48;;
1747;SDS011;871;47.034;15.394;2023-02-15T07:54:11;79.03;;;19.33;;
1747;SDS011;871;47.034;15.394;2023-02-15T07:56:37;68.75;;;18.98;;
1747;SDS011;871;47.034;15.394;2023-02-15T07:59:03;70.15;;;19.27;;
1747;SDS011;871;47.034;15.394;2023-02-15T08:01:31;74.40;;;20.40;;
1747;SDS011;871;47.034;15.394;2023-02-15T08:03:57;68.85;;;20.65;;
1747;SDS011;871;47.034;15.394;2023-02-15T08:06:25;71.13;;;19.20;;
1747;SDS011;871;47.034;15.394;2023-02-15T08:08:51;67.07;;;17.90;;
1747;SDS011;871;47.034;15.394;2023-02-15T08:11:19;70.30;;;20.65;;
1747;SDS011;871;47.034;15.394;2023-02-15T08:14:19;72.70;;;20.20;;
1747;SDS011;871;47.034;15.394;2023-02-15T08:19:17;75.65;;;23.05;;
1747;SDS011;871;47.034;15.394;2023-02-15T08:21:44;74.70;;;23.63;;
1747;SDS011;871;47.034;15.394;2023-02-15T08:24:11;74.65;;;22.95;;
1747;SDS011;871;47.034;15.394;2023-02-15T08:26:38;90.93;;;25.85;;
1747;SDS011;871;47.034;15.394;2023-02-15T08:29:04;73.72;;;20.38;;
1747;SDS011;871;47.034;15.394;2023-02-15T08:31:31;80.63;;;24.35;;
1747;SDS011;871;47.034;15.394;2023-02-15T08:33:57;73.80;;;22.33;;
1747;SDS011;871;47.034;15.394;2023-02-15T08:36:24;76.88;;;22.15;;
1747;SDS011;871;47.034;15.394;2023-02-15T08:38:53;82.05;;;24.13;;
1747;SDS011;871;47.034;15.394;2023-02-15T08:41:23;77.97;;;21.92;;
1747;SDS011;871;47.034;15.394;2023-02-15T08:43:50;77.03;;;25.50;;
1747;SDS011;871;47.034;15.394;2023-02-15T08:46:17;76.45;;;23.58;;
1747;SDS011;871;47.034;15.394;2023-02-15T08:48:44;82.22;;;23.48;;
1747;SDS011;871;47.034;15.394;2023-02-15T08:51:20;86.72;;;25.55;;
1747;SDS011;871;47.034;15.394;2023-02-15T08:53:47;80.93;;;24.27;;
1747;SDS011;871;47.034;15.394;2023-02-15T08:56:14;80.38;;;26.20;;
1747;SDS011;871;47.034;15.394;2023-02-15T08:58:40;86.55;;;24.20;;
1747;SDS011;871;47.034;15.394;2023-02-15T09:01:10;82.28;;;24.77;;
1747;SDS011;871;47.034;15.394;2023-02-15T09:03:36;85.15;;;23.48;;
1747;SDS011;871;47.034;15.394;2023-02-15T09:06:03;82.65;;;25.25;;
1747;SDS011;871;47.034;15.394;2023-02-15T09:08:29;77.78;;;21.17;;
1747;SDS011;871;47.034;15.394;2023-02-15T09:11:04;80.57;;;25.20;;
1747;SDS011;871;47.034;15.394;2023-02-15T09:13:30;77.70;;;23.73;;
1747;SDS011;871;47.034;15.394;2023-02-15T09:16:00;89.10;;;26.57;;
1747;SDS011;871;47.034;15.394;2023-02-15T09:18:26;79.50;;;23.98;;
1747;SDS011;871;47.034;15.394;2023-02-15T09:20:52;86.80;;;24.77;;
1747;SDS011;871;47.034;15.394;2023-02-15T09:23:20;83.68;;;24.67;;
1747;SDS011;871;47.034;15.394;2023-02-15T09:25:46;84.43;;;26.20;;
1747;SDS011;871;47.034;15.394;2023-02-15T09:28:12;84.63;;;23.92;;
1747;SDS011;871;47.034;15.394;2023-02-15T09:30:38;81.72;;;24.63;;
1747;SDS011;871;47.034;15.394;2023-02-15T09:33:06;79.45;;;24.48;;
1747;SDS011;871;47.034;15.394;2023-02-15T09:35:32;96.60;;;29.40;;
1747;SDS011;871;47.034;15.394;2023-02-15T09:37:58;86.20;;;26.42;;
1747;SDS011;871;47.034;15.394;2023-02-15T09:40:26;80.93;;;26.97;;
1747;SDS011;871;47.034;15.394;2023-02-15T09:45:38;85.13;;;23.30;;
1747;SDS011;871;47.034;15.394;2023-02-15T09:53:37;79.67;;;26.23;;
1747;SDS011;871;47.034;15.394;2023-02-15T10:14:09;81.40;;;23.50;;
1747;SDS011;871;47.034;15.394;2023-02-15T10:17:34;82.72;;;24.77;;
1747;SDS011;871;47.034;15.394;2023-02-15T10:27:26;79.15;;;24.85;;
1747;SDS011;871;47.034;15.394;2023-02-15T10:34:52;93.53;;;27.52;;
1747;SDS011;871;47.034;15.394;2023-02-15T10:45:08;84.82;;;25.48;;
1747;SDS011;871;47.034;15.394;2023-02-15T10:50:16;86.63;;;25.45;;
1747;SDS011;871;47.034;15.394;2023-02-15T10:58:11;78.85;;;22.77;;
1747;SDS011;871;47.034;15.394;2023-02-15T11:00:44;92.70;;;23.50;;
1747;SDS011;871;47.034;15.394;2023-02-15T11:03:33;89.53;;;24.52;;
1747;SDS011;871;47.034;15.394;2023-02-15T11:06:04;92.80;;;27.27;;
1747;SDS011;871;47.034;15.394;2023-02-15T11:08:36;87.72;;;25.90;;
1747;SDS011;871;47.034;15.394;2023-02-15T11:11:05;81.90;;;22.95;;
1747;SDS011;871;47.034;15.394;2023-02-15T11:13:34;96.38;;;26.75;;
1747;SDS011;871;47.034;15.394;2023-02-15T11:16:05;81.85;;;24.23;;
1747;SDS011;871;47.034;15.394;2023-02-15T11:18:42;78.78;;;22.65;;
1747;SDS011;871;47.034;15.394;2023-02-15T11:21:11;85.28;;;25.63;;
1747;SDS011;871;47.034;15.394;2023-02-15T11:23:40;90.22;;;25.17;;
1747;SDS011;871;47.034;15.394;2023-02-15T11:26:19;91.60;;;24.05;;
1747;SDS011;871;47.034;15.394;2023-02-15T11:28:49;82.05;;;22.88;;
1747;SDS011;871;47.034;15.394;2023-02-15T11:31:21;84.95;;;24.63;;
1747;SDS011;871;47.034;15.394;2023-02-15T11:33:50;81.70;;;23.03;;
1747;SDS011;871;47.034;15.394;2023-02-15T11:36:24;82.30;;;23.83;;
1747;SDS011;871;47.034;15.394;2023-02-15T11:38:57;74.85;;;20.90;;
1747;SDS011;871;47.034;15.394;2023-02-15T11:41:25;82.93;;;25.87;;
1747;SDS011;871;47.034;15.394;2023-02-15T11:43:56;81.63;;;23.58;;
1747;SDS011;871;47.034;15.394;2023-02-15T11:46:25;85.80;;;25.80;;
1747;SDS011;871;47.034;15.394;2023-02-15T11:48:51;89.20;;;24.15;;
1747;SDS011;871;47.034;15.394;2023-02-15T11:51:18;83.90;;;25.97;;
1747;SDS011;871;47.034;15.394;2023-02-15T11:53:45;88.47;;;27.70;;
1747;SDS011;871;47.034;15.394;2023-02-15T11:56:15;88.70;;;24.58;;
1747;SDS011;871;47.034;15.394;2023-02-15T11:58:44;86.18;;;25.90;;
1747;SDS011;871;47.034;15.394;2023-02-15T12:03:42;84.50;;;24.98;;
1747;SDS011;871;47.034;15.394;2023-02-15T12:06:13;87.23;;;24.77;;
1747;SDS011;871;47.034;15.394;2023-02-15T12:08:44;82.35;;;23.35;;
1747;SDS011;871;47.034;15.394;2023-02-15T12:11:15;93.80;;;28.43;;
1747;SDS011;871;47.034;15.394;2023-02-15T12:14:02;91.32;;;23.98;;
1747;SDS011;871;47.034;15.394;2023-02-15T12:16:31;79.97;;;23.05;;
1747;SDS011;871;47.034;15.394;2023-02-15T12:18:58;92.50;;;30.30;;
1747;SDS011;871;47.034;15.394;2023-02-15T12:21:27;89.10;;;24.85;;
1747;SDS011;871;47.034;15.394;2023-02-15T12:23:54;81.85;;;24.50;;
1747;SDS011;871;47.034;15.394;2023-02-15T12:26:25;78.75;;;22.88;;
1747;SDS011;871;47.034;15.394;2023-02-15T12:28:51;84.83;;;25.90;;
1747;SDS011;871;47.034;15.394;2023-02-15T12:31:23;85.40;;;25.13;;
1747;SDS011;871;47.034;15.394;2023-02-15T12:33:52;87.07;;;23.83;;
1747;SDS011;871;47.034;15.394;2023-02-15T12:36:20;81.87;;;25.17;;
1747;SDS011;871;47.034;15.394;2023-02-15T12:41:31;84.70;;;27.07;;
1747;SDS011;871;47.034;15.394;2023-02-15T12:44:09;87.93;;;24.47;;
1747;SDS011;871;47.034;15.394;2023-02-15T12:46:42;86.40;;;25.60;;
1747;SDS011;871;47.034;15.394;2023-02-15T12:49:21;86.67;;;26.80;;
1747;SDS011;871;47.034;15.394;2023-02-15T12:51:48;82.00;;;25.50;;
1747;SDS011;871;47.034;15.394;2023-02-15T12:54:37;88.13;;;27.20;;
1747;SDS011;871;47.034;15.394;2023-02-15T12:59:51;89.23;;;26.87;;
1747;SDS011;871;47.034;15.394;2023-02-15T13:02:25;80.22;;;23.50;;
1747;SDS011;871;47.034;15.394;2023-02-15T13:04:51;84.97;;;25.23;;
1747;SDS011;871;47.034;15.394;2023-02-15T13:07:19;85.28;;;25.17;;
1747;SDS011;871;47.034;15.394;2023-02-15T13:09:46;87.32;;;26.10;;
1747;SDS011;871;47.034;15.394;2023-02-15T13:12:26;84.00;;;23.10;;
1747;SDS011;871;47.034;15.394;2023-02-15T13:14:54;90.47;;;24.80;;
1747;SDS011;871;47.034;15.394;2023-02-15T13:17:25;87.73;;;23.43;;
1747;SDS011;871;47.034;15.394;2023-02-15T13:19:54;85.13;;;23.63;;
1747;SDS011;871;47.034;15.394;2023-02-15T13:22:22;84.30;;;22.90;;
1747;SDS011;871;47.034;15.394;2023-02-15T13:24:51;82.63;;;24.77;;
1747;SDS011;871;47.034;15.394;2023-02-15T13:27:21;82.77;;;23.33;;
1747;SDS011;871;47.034;15.394;2023-02-15T13:29:49;83.33;;;25.33;;
1747;SDS011;871;47.034;15.394;2023-02-15T13:32:30;70.00;;;20.70;;
1747;SDS011;871;47.034;15.394;2023-02-15T13:34:58;76.20;;;22.10;;
1747;SDS011;871;47.034;15.394;2023-02-15T13:37:31;75.47;;;21.13;;
1747;SDS011;871;47.034;15.394;2023-02-15T13:40:03;82.30;;;25.80;;
1747;SDS011;871;47.034;15.394;2023-02-15T13:42:36;82.97;;;26.27;;
1747;SDS011;871;47.034;15.394;2023-02-15T13:47:51;88.17;;;25.23;;
1747;SDS011;871;47.034;15.394;2023-02-15T14:05:40;83.80;;;24.67;;
1747;SDS011;871;47.034;15.394;2023-02-15T14:11:03;78.93;;;23.87;;
1747;SDS011;871;47.034;15.394;2023-02-15T14:16:46;85.77;;;25.63;;
1747;SDS011;871;47.034;15.394;2023-02-15T14:18:47;84.90;;;23.23;;
1747;SDS011;871;47.034;15.394;2023-02-15T14:23:55;85.70;;;25.10;;
1747;SDS011;871;47.034;15.394;2023-02-15T14:29:01;87.18;;;26.77;;
1747;SDS011;871;47.034;15.394;2023-02-15T14:31:32;86.05;;;25.10;;
1747;SDS011;871;47.034;15.394;2023-02-15T14:33:59;78.77;;;23.00;;
1747;SDS011;871;47.034;15.394;2023-02-15T14:36:26;90.85;;;25.33;;
1747;SDS011;871;47.034;15.394;2023-02-15T14:39:17;84.27;;;24.10;;
1747;SDS011;871;47.034;15.394;2023-02-15T14:42:04;81.38;;;23.80;;
1747;SDS011;871;47.034;15.394;2023-02-15T14:44:37;82.97;;;22.77;;
1747;SDS011;871;47.034;15.394;2023-02-15T14:47:07;83.57;;;26.05;;
1747;SDS011;871;47.034;15.394;2023-02-15T14:49:37;85.07;;;25.17;;
1747;SDS011;871;47.034;15.394;2023-02-15T14:52:04;86.32;;;25.55;;
1747;SDS011;871;47.034;15.394;2023-02-15T14:59:43;81.25;;;22.90;;
1747;SDS011;871;47.034;15.394;2023-02-15T15:04:42;79.10;;;21.67;;
1747;SDS011;871;47.034;15.394;2023-02-15T15:09:39;87.60;;;24.52;;
1747;SDS011;871;47.034;15.394;2023-02-15T15:15:01;93.35;;;24.85;;
1747;SDS011;871;47.034;15.394;2023-02-15T15:20:19;85.20;;;23.48;;
1747;SDS011;871;47.034;15.394;2023-02-15T15:28:05;88.70;;;25.70;;
1747;SDS011;871;47.034;15.394;2023-02-15T15:33:06;97.93;;;24.45;;
1747;SDS011;871;47.034;15.394;2023-02-15T15:46:33;86.90;;;23.08;;
1747;SDS011;871;47.034;15.394;2023-02-15T15:49:10;77.90;;;23.40;;
1747;SDS011;871;47.034;15.394;2023-02-15T15:51:40;86.97;;;23.80;;
1747;SDS011;871;47.034;15.394;2023-02-15T15:54:11;76.53;;;22.92;;
1747;SDS011;871;47.034;15.394;2023-02-15T15:56:38;88.70;;;27.42;;
1747;SDS011;871;47.034;15.394;2023-02-15T15:59:06;84.03;;;22.35;;
1747;SDS011;871;47.034;15.394;2023-02-15T16:01:38;74.43;;;20.23;;
1747;SDS011;871;47.034;15.394;2023-02-15T16:04:10;83.63;;;23.92;;
1747;SDS011;871;47.034;15.394;2023-02-15T16:06:38;87.30;;;25.23;;
1747;SDS011;871;47.034;15.394;2023-02-15T16:09:12;75.57;;;21.70;;
1747;SDS011;871;47.034;15.394;2023-02-15T16:11:49;86.53;;;24.57;;
1747;SDS011;871;47.034;15.394;2023-02-15T16:14:25;71.57;;;20.80;;
1747;SDS011;871;47.034;15.394;2023-02-15T16:16:52;83.13;;;24.80;;
1747;SDS011;871;47.034;15.394;2023-02-15T16:19:21;104.32;;;30.30;;
1747;SDS011;871;47.034;15.394;2023-02-15T16:21:47;83.60;;;19.80;;
1747;SDS011;871;47.034;15.394;2023-02-15T16:29:29;86.53;;;25.25;;
1747;SDS011;871;47.034;15.394;2023-02-15T16:31:57;103.07;;;24.30;;
1747;SDS011;871;47.034;15.394;2023-02-15T16:34:24;94.57;;;26.20;;
1747;SDS011;871;47.034;15.394;2023-02-15T16:37:11;86.50;;;22.80;;
1747;SDS011;871;47.034;15.394;2023-02-15T16:39:40;81.85;;;23.48;;
1747;SDS011;871;47.034;15.394;2023-02-15T16:42:06;82.32;;;25.25;;
1747;SDS011;871;47.034;15.394;2023-02-15T16:44:33;90.60;;;25.45;;
1747;SDS011;871;47.034;15.394;2023-02-15T16:46:59;87.55;;;23.30;;
1747;SDS011;871;47.034;15.394;2023-02-15T16:49:27;84.25;;;24.17;;
1747;SDS011;871;47.034;15.394;2023-02-15T16:52:01;90.00;;;24.77;;
1747;SDS011;871;47.034;15.394;2023-02-15T16:54:28;91.53;;;23.63;;
1747;SDS011;871;47.034;15.394;2023-02-15T16:56:57;87.00;;;24.20;;
1747;SDS011;871;47.034;15.394;2023-02-15T16:59:30;100.68;;;26.50;;
1747;SDS011;871;47.034;15.394;2023-02-15T17:01:57;73.95;;;20.75;;
1747;SDS011;871;47.034;15.394;2023-02-15T17:04:30;91.25;;;23.50;;
1747;SDS011;871;47.034;15.394;2023-02-15T17:09:26;81.30;;;23.38;;
1747;SDS011;871;47.034;15.394;2023-02-15T17:11:52;95.65;;;26.75;;
1747;SDS011;871;47.034;15.394;2023-02-15T17:14:20;92.45;;;27.10;;
1747;SDS011;871;47.034;15.394;2023-02-15T17:16:48;97.20;;;27.15;;
1747;SDS011;871;47.034;15.394;2023-02-15T17:19:19;95.15;;;28.35;;
1747;SDS011;871;47.034;15.394;2023-02-15T17:21:51;100.50;;;29.17;;
1747;SDS011;871;47.034;15.394;2023-02-15T17:24:19;94.13;;;29.00;;
1747;SDS011;871;47.034;15.394;2023-02-15T17:26:50;98.10;;;28.42;;
1747;SDS011;871;47.034;15.394;2023-02-15T17:29:20;112.47;;;28.50;;
1747;SDS011;871;47.034;15.394;2023-02-15T17:31:49;82.65;;;24.90;;
1747;SDS011;871;47.034;15.394;2023-02-15T17:37:01;83.00;;;23.00;;
1747;SDS011;871;47.034;15.394;2023-02-15T17:39:28;94.13;;;25.77;;
1747;SDS011;871;47.034;15.394;2023-02-15T17:41:54;83.65;;;24.00;;
1747;SDS011;871;47.034;15.394;2023-02-15T17:44:21;82.38;;;23.05;;
1747;SDS011;871;47.034;15.394;2023-02-15T17:46:47;84.53;;;24.52;;
1747;SDS011;871;47.034;15.394;2023-02-15T17:49:15;87.00;;;23.77;;
1747;SDS011;871;47.034;15.394;2023-02-15T17:51:44;99.30;;;24.25;;
1747;SDS011;871;47.034;15.394;2023-02-15T17:54:11;103.97;;;27.20;;
1747;SDS011;871;47.034;15.394;2023-02-15T17:56:56;91.18;;;22.85;;
1747;SDS011;871;47.034;15.394;2023-02-15T17:59:27;97.20;;;23.63;;
1747;SDS011;871;47.034;15.394;2023-02-15T18:01:53;79.95;;;23.45;;
1747;SDS011;871;47.034;15.394;2023-02-15T18:04:38;81.22;;;23.33;;
1747;SDS011;871;47.034;15.394;2023-02-15T18:07:23;82.68;;;20.55;;
1747;SDS011;871;47.034;15.394;2023-02-15T18:10:16;88.32;;;22.63;;
1747;SDS011;871;47.034;15.394;2023-02-15T18:13:01;88.80;;;25.38;;
1747;SDS011;871;47.034;15.394;2023-02-15T18:15:28;100.97;;;28.15;;
1747;SDS011;871;47.034;15.394;2023-02-15T18:17:54;81.65;;;24.60;;
1747;SDS011;871;47.034;15.394;2023-02-15T18:20:26;79.97;;;23.33;;
1747;SDS011;871;47.034;15.394;2023-02-15T18:22:55;87.30;;;23.67;;
1747;SDS011;871;47.034;15.394;2023-02-15T18:25:23;114.30;;;33.33;;
1747;SDS011;871;47.034;15.394;2023-02-15T18:27:50;119.78;;;35.20;;
1747;SDS011;871;47.034;15.394;2023-02-15T18:30:20;126.38;;;37.65;;
1747;SDS011;871;47.034;15.394;2023-02-15T18:32:49;130.00;;;35.03;;
1747;SDS011;871;47.034;15.394;2023-02-15T18:35:18;128.95;;;34.05;;
1747;SDS011;871;47.034;15.394;2023-02-15T18:37:46;98.88;;;27.35;;
1747;SDS011;871;47.034;15.394;2023-02-15T18:40:16;127.80;;;34.60;;
1747;SDS011;871;47.034;15.394;2023-02-15T18:42:45;125.72;;;33.60;;
1747;SDS011;871;47.034;15.394;2023-02-15T18:45:14;117.80;;;31.50;;
1747;SDS011;871;47.034;15.394;2023-02-15T18:47:41;96.63;;;27.50;;
1747;SDS011;871;47.034;15.394;2023-02-15T18:50:08;112.75;;;27.80;;
1747;SDS011;871;47.034;15.394;2023-02-15T18:52:36;106.68;;;26.63;;
1747;SDS011;871;47.034;15.394;2023-02-15T18:55:04;97.85;;;26.15;;
1747;SDS011;871;47.034;15.394;2023-02-15T18:57:34;99.05;;;26.30;;
1747;SDS011;871;47.034;15.394;2023-02-15T19:00:05;94.32;;;25.42;;
1747;SDS011;871;47.034;15.394;2023-02-15T19:02:32;120.63;;;27.70;;
1747;SDS011;871;47.034;15.394;2023-02-15T19:04:58;99.05;;;27.23;;
1747;SDS011;871;47.034;15.394;2023-02-15T19:07:25;99.07;;;28.58;;
1747;SDS011;871;47.034;15.394;2023-02-15T19:09:57;99.10;;;25.85;;
1747;SDS011;871;47.034;15.394;2023-02-15T19:12:25;102.82;;;30.60;;
1747;SDS011;871;47.034;15.394;2023-02-15T19:14:52;100.00;;;29.63;;
1747;SDS011;871;47.034;15.394;2023-02-15T19:17:20;108.88;;;28.95;;
1747;SDS011;871;47.034;15.394;2023-02-15T19:19:47;105.78;;;31.42;;
1747;SDS011;871;47.034;15.394;2023-02-15T19:22:15;109.75;;;29.70;;
1747;SDS011;871;47.034;15.394;2023-02-15T19:24:42;97.15;;;29.90;;
1747;SDS011;871;47.034;15.394;2023-02-15T19:27:16;98.00;;;27.92;;
1747;SDS011;871;47.034;15.394;2023-02-15T19:29:44;105.68;;;32.65;;
1747;SDS011;871;47.034;15.394;2023-02-15T19:32:10;103.75;;;30.88;;
1747;SDS011;871;47.034;15.394;2023-02-15T19:34:37;111.07;;;32.10;;
1747;SDS011;871;47.034;15.394;2023-02-15T19:37:05;91.53;;;27.55;;
1747;SDS011;871;47.034;15.394;2023-02-15T19:39:38;100.03;;;30.17;;
1747;SDS011;871;47.034;15.394;2023-02-15T19:42:09;105.55;;;33.67;;
1747;SDS011;871;47.034;15.394;2023-02-15T19:44:38;102.35;;;31.42;;
1747;SDS011;871;47.034;15.394;2023-02-15T19:47:13;106.80;;;29.60;;
1747;SDS011;871;47.034;15.394;2023-02-15T19:49:40;100.95;;;28.42;;
1747;SDS011;871;47.034;15.394;2023-02-15T19:52:19;104.65;;;29.45;;
1747;SDS011;871;47.034;15.394;2023-02-15T19:54:50;112.13;;;31.48;;
1747;SDS011;871;47.034;15.394;2023-02-15T19:57:18;97.57;;;26.08;;
1747;SDS011;871;47.034;15.394;2023-02-15T19:59:44;101.25;;;30.50;;
1747;SDS011;871;47.034;15.394;2023-02-15T20:02:15;91.72;;;26.88;;
1747;SDS011;871;47.034;15.394;2023-02-15T20:04:44;107.55;;;30.42;;
1747;SDS011;871;47.034;15.394;2023-02-15T20:07:28;99.13;;;29.40;;
1747;SDS011;871;47.034;15.394;2023-02-15T20:09:55;94.38;;;27.95;;
1747;SDS011;871;47.034;15.394;2023-02-15T20:12:23;94.25;;;27.02;;
1747;SDS011;871;47.034;15.394;2023-02-15T20:14:50;97.57;;;29.75;;
1747;SDS011;871;47.034;15.394;2023-02-15T20:17:17;87.22;;;25.50;;
1747;SDS011;871;47.034;15.394;2023-02-15T20:19:44;88.30;;;26.50;;
1747;SDS011;871;47.034;15.394;2023-02-15T20:22:20;92.00;;;27.30;;
1747;SDS011;871;47.034;15.394;2023-02-15T20:24:49;82.38;;;25.85;;
1747;SDS011;871;47.034;15.394;2023-02-15T20:27:17;93.60;;;27.38;;
1747;SDS011;871;47.034;15.394;2023-02-15T20:29:45;99.07;;;29.77;;
1747;SDS011;871;47.034;15.394;2023-02-15T20:32:12;93.40;;;24.30;;
1747;SDS011;871;47.034;15.394;2023-02-15T20:34:40;90.25;;;29.20;;
1747;SDS011;871;47.034;15.394;2023-02-15T20:37:16;93.20;;;27.27;;
1747;SDS011;871;47.034;15.394;2023-02-15T20:39:47;96.50;;;26.38;;
1747;SDS011;871;47.034;15.394;2023-02-15T20:42:14;89.38;;;27.08;;
1747;SDS011;871;47.034;15.394;2023-02-15T20:44:40;83.80;;;25.52;;
1747;SDS011;871;47.034;15.394;2023-02-15T20:47:09;89.20;;;27.05;;
1747;SDS011;871;47.034;15.394;2023-02-15T20:49:37;97.03;;;28.83;;
1747;SDS011;871;47.034;15.394;2023-02-15T20:52:15;80.72;;;26.30;;
1747;SDS011;871;47.034;15.394;2023-02-15T20:54:43;89.75;;;27.15;;
1747;SDS011;871;47.034;15.394;2023-02-15T20:57:12;100.95;;;26.98;;
1747;SDS011;871;47.034;15.394;2023-02-15T20:59:39;101.20;;;30.75;;
1747;SDS011;871;47.034;15.394;2023-02-15T21:02:16;101.75;;;29.27;;
1747;SDS011;871;47.034;15.394;2023-02-15T21:04:43;97.22;;;28.35;;
1747;SDS011;871;47.034;15.394;2023-02-15T21:07:13;98.57;;;30.95;;
1747;SDS011;871;47.034;15.394;2023-02-15T21:09:42;93.57;;;29.17;;
1747;SDS011;871;47.034;15.394;2023-02-15T21:12:12;94.30;;;26.42;;
1747;SDS011;871;47.034;15.394;2023-02-15T21:14:45;93.07;;;28.23;;
1747;SDS011;871;47.034;15.394;2023-02-15T21:17:12;93.00;;;26.83;;
1747;SDS011;871;47.034;15.394;2023-02-15T21:19:41;96.25;;;27.77;;
1747;SDS011;871;47.034;15.394;2023-02-15T21:22:11;95.13;;;30.23;;
1747;SDS011;871;47.034;15.394;2023-02-15T21:24:37;86.47;;;28.08;;
1747;SDS011;871;47.034;15.394;2023-02-15T21:27:08;109.60;;;30.58;;
1747;SDS011;871;47.034;15.394;2023-02-15T21:29:37;91.45;;;29.20;;
1747;SDS011;871;47.034;15.394;2023-02-15T21:32:04;104.22;;;27.83;;
1747;SDS011;871;47.034;15.394;2023-02-15T21:34:31;100.38;;;29.73;;
1747;SDS011;871;47.034;15.394;2023-02-15T21:36:58;86.72;;;27.45;;
1747;SDS011;871;47.034;15.394;2023-02-15T21:39:26;89.65;;;29.73;;
1747;SDS011;871;47.034;15.394;2023-02-15T21:41:53;92.28;;;26.10;;
1747;SDS011;871;47.034;15.394;2023-02-15T21:44:39;98.47;;;30.73;;
1747;SDS011;871;47.034;15.394;2023-02-15T21:47:25;82.18;;;24.70;;
1747;SDS011;871;47.034;15.394;2023-02-15T21:50:14;105.25;;;29.40;;
1747;SDS011;871;47.034;15.394;2023-02-15T21:52:59;95.82;;;26.85;;
1747;SDS011;871;47.034;15.394;2023-02-15T21:55:27;91.68;;;28.67;;
1747;SDS011;871;47.034;15.394;2023-02-15T21:57:53;94.22;;;29.33;;
